Terminal Aerodrome Forecast
Issued by NWS Duluth, MN

Home | Current Version | Previous Version | Text Only | Print | Product List | Glossary On
Versions: 1 2 3 4 5 6 7 8 9 10 11 12 13 14 15 16 17 18 19 20 21 22 23 24 25 26 27 28
000
FTUS43 KDLH 280523
TAFDLH
TAF
KDLH 280523Z 2806/2906 15004KT P6SM SCT150 WS020/20030KT
     FM280800 15010KT P6SM VCSH SCT035 BKN060 WS020/20035KT
     FM281200 15011KT 5SM -SHRA VCTS SCT025CB OVC050
     FM281500 13011KT 3SM -SHRA VCTS SCT008 OVC012CB
     FM281900 13008KT 2SM -RA BR OVC008
     FM282300 13006KT 3SM -SHRA BR OVC008
     FM290200 30005KT 5SM BR VCSH OVC008=

USA.gov is the U.S. government's official web portal to all federal, state and local government web resources and services.